sensor_id;sensor_type;location;lat;lon;timestamp;noise_LAeq;noise_LA_min;noise_LA_max;noise_LA01;noise_LA95
64545;Laerm;50936;51.660;5.616;2023-03-17T00:01:54;51.48;39.34;64.83;;
64545;Laerm;50936;51.660;5.616;2023-03-17T00:04:23;54.22;40.33;68.63;;
64545;Laerm;50936;51.660;5.616;2023-03-17T00:06:52;51.52;39.81;67.81;;
64545;Laerm;50936;51.660;5.616;2023-03-17T00:09:21;49.32;39.92;66.85;;
64545;Laerm;50936;51.660;5.616;2023-03-17T00:11:49;49.89;40.23;68.66;;
64545;Laerm;50936;51.660;5.616;2023-03-17T00:14:16;47.26;39.46;64.50;;
64545;Laerm;50936;51.660;5.616;2023-03-17T00:16:48;51.00;38.95;76.30;;
64545;Laerm;50936;51.660;5.616;2023-03-17T00:19:31;50.47;39.46;70.17;;
64545;Laerm;50936;51.660;5.616;2023-03-17T00:22:00;52.53;39.58;67.00;;
64545;Laerm;50936;51.660;5.616;2023-03-17T00:24:29;50.79;39.92;69.28;;
64545;Laerm;50936;51.660;5.616;2023-03-17T00:26:57;51.82;40.03;71.03;;
64545;Laerm;50936;51.660;5.616;2023-03-17T00:29:24;53.57;40.71;72.72;;
64545;Laerm;50936;51.660;5.616;2023-03-17T00:31:54;52.60;40.80;70.41;;
64545;Laerm;50936;51.660;5.616;2023-03-17T00:34:22;48.62;39.81;68.52;;
64545;Laerm;50936;51.660;5.616;2023-03-17T00:36:51;52.84;39.46;67.96;;
64545;Laerm;50936;51.660;5.616;2023-03-17T00:39:18;48.95;39.58;71.67;;
64545;Laerm;50936;51.660;5.616;2023-03-17T00:41:45;45.98;39.23;65.02;;
64545;Laerm;50936;51.660;5.616;2023-03-17T00:44:15;47.83;39.58;66.94;;
64545;Laerm;50936;51.660;5.616;2023-03-17T00:46:43;47.44;39.21;67.47;;
64545;Laerm;50936;51.660;5.616;2023-03-17T00:49:21;48.73;37.12;63.70;;
64545;Laerm;50936;51.660;5.616;2023-03-17T00:51:49;46.64;38.81;64.32;;
64545;Laerm;50936;51.660;5.616;2023-03-17T00:54:20;46.45;39.08;64.17;;
64545;Laerm;50936;51.660;5.616;2023-03-17T00:56:48;51.54;39.68;71.62;;
64545;Laerm;50936;51.660;5.616;2023-03-17T00:59:29;43.57;39.21;55.41;;
64545;Laerm;50936;51.660;5.616;2023-03-17T01:02:02;54.16;39.70;68.20;;
64545;Laerm;50936;51.660;5.616;2023-03-17T01:04:29;43.97;38.95;62.53;;
64545;Laerm;50936;51.660;5.616;2023-03-17T01:06:57;43.49;38.37;59.49;;
64545;Laerm;50936;51.660;5.616;2023-03-17T01:09:26;50.09;38.47;76.29;;
64545;Laerm;50936;51.660;5.616;2023-03-17T01:11:56;45.10;36.91;68.24;;
64545;Laerm;50936;51.660;5.616;2023-03-17T01:14:23;46.99;39.46;72.29;;
64545;Laerm;50936;51.660;5.616;2023-03-17T01:16:51;44.06;38.81;55.61;;
64545;Laerm;50936;51.660;5.616;2023-03-17T01:19:21;46.61;39.70;64.88;;
64545;Laerm;50936;51.660;5.616;2023-03-17T01:21:48;45.40;38.95;63.40;;
64545;Laerm;50936;51.660;5.616;2023-03-17T01:24:15;47.45;39.70;61.66;;
64545;Laerm;50936;51.660;5.616;2023-03-17T01:26:42;53.18;40.03;75.29;;
64545;Laerm;50936;51.660;5.616;2023-03-17T01:29:10;47.27;39.34;68.68;;
64545;Laerm;50936;51.660;5.616;2023-03-17T01:31:37;48.94;37.87;66.83;;
64545;Laerm;50936;51.660;5.616;2023-03-17T01:34:04;49.67;40.62;67.85;;
64545;Laerm;50936;51.660;5.616;2023-03-17T01:36:32;47.12;39.08;66.87;;
64545;Laerm;50936;51.660;5.616;2023-03-17T01:39:00;48.39;39.34;68.17;;
64545;Laerm;50936;51.660;5.616;2023-03-17T01:41:27;47.02;40.03;67.95;;
64545;Laerm;50936;51.660;5.616;2023-03-17T01:43:53;50.68;38.81;73.15;;
64545;Laerm;50936;51.660;5.616;2023-03-17T01:46:26;52.60;39.34;74.19;;
64545;Laerm;50936;51.660;5.616;2023-03-17T01:49:04;47.26;38.67;65.69;;
64545;Laerm;50936;51.660;5.616;2023-03-17T01:57:45;53.78;39.08;80.57;;
64545;Laerm;50936;51.660;5.616;2023-03-17T02:00:21;55.18;38.95;80.48;;
64545;Laerm;50936;51.660;5.616;2023-03-17T02:02:55;46.05;39.08;63.50;;
64545;Laerm;50936;51.660;5.616;2023-03-17T02:05:32;50.89;38.95;75.51;;
64545;Laerm;50936;51.660;5.616;2023-03-17T02:08:12;52.58;37.32;74.00;;
64545;Laerm;50936;51.660;5.616;2023-03-17T02:10:41;52.06;40.13;69.05;;
64545;Laerm;50936;51.660;5.616;2023-03-17T02:13:12;55.41;39.92;77.32;;
64545;Laerm;50936;51.660;5.616;2023-03-17T02:15:50;44.23;39.21;62.10;;
64545;Laerm;50936;51.660;5.616;2023-03-17T02:18:20;47.66;38.81;69.68;;
64545;Laerm;50936;51.660;5.616;2023-03-17T02:23:23;52.65;38.21;74.57;;
64545;Laerm;50936;51.660;5.616;2023-03-17T02:25:52;45.67;39.58;64.48;;
64545;Laerm;50936;51.660;5.616;2023-03-17T02:28:27;46.77;37.87;72.33;;
64545;Laerm;50936;51.660;5.616;2023-03-17T02:30:55;46.98;38.67;68.50;;
64545;Laerm;50936;51.660;5.616;2023-03-17T02:33:23;52.79;39.21;74.95;;
64545;Laerm;50936;51.660;5.616;2023-03-17T02:35:53;48.97;39.92;69.44;;
64545;Laerm;50936;51.660;5.616;2023-03-17T02:38:20;52.12;39.92;67.29;;
64545;Laerm;50936;51.660;5.616;2023-03-17T02:40:48;51.18;39.46;75.85;;
64545;Laerm;50936;51.660;5.616;2023-03-17T02:43:15;46.65;39.21;66.86;;
64545;Laerm;50936;51.660;5.616;2023-03-17T02:45:42;49.32;38.95;67.13;;
64545;Laerm;50936;51.660;5.616;2023-03-17T02:48:10;49.64;38.67;72.55;;
64545;Laerm;50936;51.660;5.616;2023-03-17T02:50:37;52.16;40.13;72.69;;
64545;Laerm;50936;51.660;5.616;2023-03-17T02:53:04;46.52;39.89;66.41;;
64545;Laerm;50936;51.660;5.616;2023-03-17T02:55:32;47.55;39.34;68.60;;
64545;Laerm;50936;51.660;5.616;2023-03-17T02:57:59;49.50;39.70;71.43;;
64545;Laerm;50936;51.660;5.616;2023-03-17T03:00:28;44.52;38.21;60.93;;
64545;Laerm;50936;51.660;5.616;2023-03-17T03:02:56;46.73;39.81;67.22;;
64545;Laerm;50936;51.660;5.616;2023-03-17T03:05:22;45.85;39.92;68.23;;
64545;Laerm;50936;51.660;5.616;2023-03-17T03:07:50;43.37;40.43;56.46;;
64545;Laerm;50936;51.660;5.616;2023-03-17T03:10:18;44.93;39.92;62.78;;
64545;Laerm;50936;51.660;5.616;2023-03-17T03:12:45;53.40;40.43;70.99;;
64545;Laerm;50936;51.660;5.616;2023-03-17T03:15:12;51.02;40.33;66.12;;
64545;Laerm;50936;51.660;5.616;2023-03-17T03:17:40;46.44;40.62;64.47;;
64545;Laerm;50936;51.660;5.616;2023-03-17T03:20:08;48.28;39.46;68.44;;
64545;Laerm;50936;51.660;5.616;2023-03-17T03:22:36;45.73;39.08;62.99;;
64545;Laerm;50936;51.660;5.616;2023-03-17T03:25:05;50.51;39.58;66.48;;
64545;Laerm;50936;51.660;5.616;2023-03-17T03:27:34;46.25;40.71;65.80;;
64545;Laerm;50936;51.660;5.616;2023-03-17T03:30:02;44.15;40.71;54.05;;
64545;Laerm;50936;51.660;5.616;2023-03-17T03:32:29;51.63;40.53;70.86;;
64545;Laerm;50936;51.660;5.616;2023-03-17T03:34:57;46.37;39.92;65.81;;
64545;Laerm;50936;51.660;5.616;2023-03-17T03:37:24;46.26;40.71;64.31;;
64545;Laerm;50936;51.660;5.616;2023-03-17T03:39:51;50.10;40.89;64.84;;
64545;Laerm;50936;51.660;5.616;2023-03-17T03:42:18;51.81;40.53;67.18;;
64545;Laerm;50936;51.660;5.616;2023-03-17T03:44:45;46.20;39.58;66.65;;
64545;Laerm;50936;51.660;5.616;2023-03-17T03:47:12;49.87;40.80;65.53;;
64545;Laerm;50936;51.660;5.616;2023-03-17T03:49:38;49.27;40.89;69.70;;
64545;Laerm;50936;51.660;5.616;2023-03-17T03:52:05;58.17;41.82;73.15;;
64545;Laerm;50936;51.660;5.616;2023-03-17T03:54:33;52.07;40.79;72.68;;
64545;Laerm;50936;51.660;5.616;2023-03-17T03:57:02;53.24;41.22;71.42;;
64545;Laerm;50936;51.660;5.616;2023-03-17T03:59:29;57.70;41.82;77.35;;
64545;Laerm;50936;51.660;5.616;2023-03-17T04:01:56;57.74;41.68;76.52;;
64545;Laerm;50936;51.660;5.616;2023-03-17T04:04:23;48.84;40.89;63.23;;
64545;Laerm;50936;51.660;5.616;2023-03-17T04:06:50;52.85;41.89;67.80;;
64545;Laerm;50936;51.660;5.616;2023-03-17T04:09:16;55.80;42.00;78.37;;
64545;Laerm;50936;51.660;5.616;2023-03-17T04:11:43;49.62;41.61;72.86;;
64545;Laerm;50936;51.660;5.616;2023-03-17T04:14:10;54.96;40.62;76.06;;
64545;Laerm;50936;51.660;5.616;2023-03-17T04:16:37;47.19;41.96;63.70;;
64545;Laerm;50936;51.660;5.616;2023-03-17T04:19:04;56.51;43.04;74.81;;
64545;Laerm;50936;51.660;5.616;2023-03-17T04:21:31;58.01;42.59;74.40;;
64545;Laerm;50936;51.660;5.616;2023-03-17T04:24:03;51.31;41.68;71.26;;
64545;Laerm;50936;51.660;5.616;2023-03-17T04:26:31;52.80;42.47;67.74;;
64545;Laerm;50936;51.660;5.616;2023-03-17T04:28:58;54.44;43.24;74.47;;
64545;Laerm;50936;51.660;5.616;2023-03-17T04:31:25;51.44;43.44;67.16;;
64545;Laerm;50936;51.660;5.616;2023-03-17T04:33:52;50.28;43.49;68.63;;
64545;Laerm;50936;51.660;5.616;2023-03-17T04:36:21;58.64;44.58;74.48;;
64545;Laerm;50936;51.660;5.616;2023-03-17T04:38:48;56.54;44.19;79.24;;
64545;Laerm;50936;51.660;5.616;2023-03-17T04:41:15;55.46;44.07;72.35;;
64545;Laerm;50936;51.660;5.616;2023-03-17T04:43:42;55.76;44.15;74.66;;
64545;Laerm;50936;51.660;5.616;2023-03-17T04:46:09;58.70;43.63;77.76;;
64545;Laerm;50936;51.660;5.616;2023-03-17T04:48:36;56.73;43.58;75.87;;
64545;Laerm;50936;51.660;5.616;2023-03-17T04:51:04;58.40;43.81;78.06;;
64545;Laerm;50936;51.660;5.616;2023-03-17T04:53:30;53.75;43.76;75.16;;
64545;Laerm;50936;51.660;5.616;2023-03-17T04:55:58;57.28;43.86;70.60;;
64545;Laerm;50936;51.660;5.616;2023-03-17T04:58:25;53.80;44.11;75.23;;
64545;Laerm;50936;51.660;5.616;2023-03-17T05:00:57;54.41;44.35;69.59;;
64545;Laerm;50936;51.660;5.616;2023-03-17T05:03:24;58.20;44.69;77.45;;
64545;Laerm;50936;51.660;5.616;2023-03-17T05:05:53;54.97;44.54;72.00;;
64545;Laerm;50936;51.660;5.616;2023-03-17T05:08:21;65.55;46.97;88.44;;
64545;Laerm;50936;51.660;5.616;2023-03-17T05:10:48;59.86;49.97;73.59;;
64545;Laerm;50936;51.660;5.616;2023-03-17T05:13:15;62.41;50.49;85.01;;
64545;Laerm;50936;51.660;5.616;2023-03-17T05:15:51;58.46;44.72;76.16;;
64545;Laerm;50936;51.660;5.616;2023-03-17T05:18:20;57.60;44.87;75.90;;
64545;Laerm;50936;51.660;5.616;2023-03-17T05:20:47;53.29;44.15;69.20;;
64545;Laerm;50936;51.660;5.616;2023-03-17T05:23:14;56.61;45.42;68.15;;
64545;Laerm;50936;51.660;5.616;2023-03-17T05:25:41;54.81;44.90;69.11;;
64545;Laerm;50936;51.660;5.616;2023-03-17T05:28:08;59.46;44.83;72.00;;
64545;Laerm;50936;51.660;5.616;2023-03-17T05:30:35;58.26;44.62;69.99;;
64545;Laerm;50936;51.660;5.616;2023-03-17T05:33:04;59.70;45.75;79.87;;
64545;Laerm;50936;51.660;5.616;2023-03-17T05:35:31;60.26;50.57;77.96;;
64545;Laerm;50936;51.660;5.616;2023-03-17T05:37:58;64.25;45.54;81.04;;
64545;Laerm;50936;51.660;5.616;2023-03-17T05:40:25;60.98;47.38;72.30;;
64545;Laerm;50936;51.660;5.616;2023-03-17T05:42:52;65.15;49.11;84.16;;
64545;Laerm;50936;51.660;5.616;2023-03-17T05:45:19;62.43;49.20;78.12;;
64545;Laerm;50936;51.660;5.616;2023-03-17T05:47:46;62.27;50.48;74.49;;
64545;Laerm;50936;51.660;5.616;2023-03-17T05:50:13;68.98;49.18;86.13;;
64545;Laerm;50936;51.660;5.616;2023-03-17T05:52:40;63.27;51.03;78.75;;
64545;Laerm;50936;51.660;5.616;2023-03-17T05:55:08;62.40;51.35;76.95;;
64545;Laerm;50936;51.660;5.616;2023-03-17T05:57:35;62.23;51.25;79.01;;
64545;Laerm;50936;51.660;5.616;2023-03-17T06:00:02;59.83;47.86;74.44;;
64545;Laerm;50936;51.660;5.616;2023-03-17T06:02:31;58.27;46.82;70.57;;
64545;Laerm;50936;51.660;5.616;2023-03-17T06:04:58;59.94;48.52;68.13;;
64545;Laerm;50936;51.660;5.616;2023-03-17T06:07:25;58.94;49.64;72.12;;
64545;Laerm;50936;51.660;5.616;2023-03-17T06:09:56;60.61;47.55;76.28;;
64545;Laerm;50936;51.660;5.616;2023-03-17T06:12:23;62.07;48.76;77.19;;
64545;Laerm;50936;51.660;5.616;2023-03-17T06:14:51;56.90;46.40;71.51;;
64545;Laerm;50936;51.660;5.616;2023-03-17T06:17:20;59.25;46.23;72.93;;
64545;Laerm;50936;51.660;5.616;2023-03-17T06:19:47;59.82;49.24;69.33;;
64545;Laerm;50936;51.660;5.616;2023-03-17T06:22:15;58.72;46.97;74.56;;
64545;Laerm;50936;51.660;5.616;2023-03-17T06:24:42;60.61;50.35;78.31;;
64545;Laerm;50936;51.660;5.616;2023-03-17T06:27:09;60.97;51.32;71.71;;
64545;Laerm;50936;51.660;5.616;2023-03-17T06:29:36;61.98;52.06;77.37;;
64545;Laerm;50936;51.660;5.616;2023-03-17T06:32:04;60.62;50.63;70.58;;
64545;Laerm;50936;51.660;5.616;2023-03-17T06:34:46;62.82;50.06;76.42;;
64545;Laerm;50936;51.660;5.616;2023-03-17T06:37:13;68.84;53.25;89.72;;
64545;Laerm;50936;51.660;5.616;2023-03-17T06:39:40;61.83;49.71;77.04;;
64545;Laerm;50936;51.660;5.616;2023-03-17T06:42:07;59.97;50.45;76.08;;
64545;Laerm;50936;51.660;5.616;2023-03-17T06:44:34;60.03;49.30;72.07;;
64545;Laerm;50936;51.660;5.616;2023-03-17T06:47:02;63.68;52.63;77.73;;
64545;Laerm;50936;51.660;5.616;2023-03-17T06:49:31;63.82;54.20;80.16;;
64545;Laerm;50936;51.660;5.616;2023-03-17T06:51:58;66.25;52.52;82.26;;
64545;Laerm;50936;51.660;5.616;2023-03-17T06:54:25;61.45;50.97;73.81;;
64545;Laerm;50936;51.660;5.616;2023-03-17T06:56:52;63.08;50.97;81.50;;
64545;Laerm;50936;51.660;5.616;2023-03-17T06:59:21;65.09;52.21;86.47;;
64545;Laerm;50936;51.660;5.616;2023-03-17T07:01:48;62.07;51.61;70.87;;
64545;Laerm;50936;51.660;5.616;2023-03-17T07:04:16;62.10;51.08;75.48;;
64545;Laerm;50936;51.660;5.616;2023-03-17T07:06:42;61.72;50.57;73.36;;
64545;Laerm;50936;51.660;5.616;2023-03-17T07:09:10;62.38;50.28;71.29;;
64545;Laerm;50936;51.660;5.616;2023-03-17T07:11:37;61.78;50.48;82.33;;
64545;Laerm;50936;51.660;5.616;2023-03-17T07:14:04;60.99;50.16;71.47;;
64545;Laerm;50936;51.660;5.616;2023-03-17T07:16:32;63.35;50.47;73.42;;
64545;Laerm;50936;51.660;5.616;2023-03-17T07:18:59;63.91;53.39;79.24;;
64545;Laerm;50936;51.660;5.616;2023-03-17T07:21:27;64.86;54.97;79.49;;
64545;Laerm;50936;51.660;5.616;2023-03-17T07:23:54;62.20;51.84;81.58;;
64545;Laerm;50936;51.660;5.616;2023-03-17T07:26:21;64.13;52.26;81.48;;
64545;Laerm;50936;51.660;5.616;2023-03-17T07:28:48;62.49;51.40;74.72;;
64545;Laerm;50936;51.660;5.616;2023-03-17T07:31:15;63.53;52.66;81.62;;
64545;Laerm;50936;51.660;5.616;2023-03-17T07:33:42;61.82;52.17;77.80;;
64545;Laerm;50936;51.660;5.616;2023-03-17T07:36:09;65.28;53.26;76.34;;
64545;Laerm;50936;51.660;5.616;2023-03-17T07:38:36;64.97;55.74;79.74;;
64545;Laerm;50936;51.660;5.616;2023-03-17T07:41:04;66.25;55.55;80.19;;
64545;Laerm;50936;51.660;5.616;2023-03-17T07:43:36;65.01;53.30;82.09;;
64545;Laerm;50936;51.660;5.616;2023-03-17T07:46:03;64.54;54.38;79.37;;
64545;Laerm;50936;51.660;5.616;2023-03-17T07:48:32;63.90;56.10;75.99;;
64545;Laerm;50936;51.660;5.616;2023-03-17T07:50:59;63.39;52.19;82.69;;
64545;Laerm;50936;51.660;5.616;2023-03-17T07:53:27;64.47;54.96;80.81;;
64545;Laerm;50936;51.660;5.616;2023-03-17T07:55:53;62.65;53.00;73.57;;
64545;Laerm;50936;51.660;5.616;2023-03-17T07:58:20;63.26;52.42;75.93;;
64545;Laerm;50936;51.660;5.616;2023-03-17T08:00:47;62.69;51.00;73.42;;
64545;Laerm;50936;51.660;5.616;2023-03-17T08:03:14;66.34;51.10;81.70;;
64545;Laerm;50936;51.660;5.616;2023-03-17T08:05:41;65.17;55.24;83.81;;
64545;Laerm;50936;51.660;5.616;2023-03-17T08:08:08;66.83;50.18;91.86;;
64545;Laerm;50936;51.660;5.616;2023-03-17T08:10:36;64.81;59.65;72.13;;
64545;Laerm;50936;51.660;5.616;2023-03-17T08:13:03;64.44;58.84;76.35;;
64545;Laerm;50936;51.660;5.616;2023-03-17T08:15:30;63.94;57.47;75.93;;
64545;Laerm;50936;51.660;5.616;2023-03-17T08:17:57;63.92;58.58;71.53;;
64545;Laerm;50936;51.660;5.616;2023-03-17T08:20:23;63.13;50.06;82.94;;
64545;Laerm;50936;51.660;5.616;2023-03-17T08:22:50;64.50;47.54;88.42;;
64545;Laerm;50936;51.660;5.616;2023-03-17T08:25:17;67.06;55.22;90.20;;
64545;Laerm;50936;51.660;5.616;2023-03-17T08:27:44;65.56;55.93;79.40;;
64545;Laerm;50936;51.660;5.616;2023-03-17T08:30:12;65.09;52.51;76.34;;
64545;Laerm;50936;51.660;5.616;2023-03-17T08:32:39;60.99;49.96;80.19;;
64545;Laerm;50936;51.660;5.616;2023-03-17T08:35:10;63.06;51.80;73.54;;
64545;Laerm;50936;51.660;5.616;2023-03-17T08:37:37;62.79;53.87;74.41;;
64545;Laerm;50936;51.660;5.616;2023-03-17T08:40:04;64.53;53.89;72.86;;
64545;Laerm;50936;51.660;5.616;2023-03-17T08:42:31;63.75;52.58;81.46;;
64545;Laerm;50936;51.660;5.616;2023-03-17T08:44:58;61.96;49.43;79.99;;
64545;Laerm;50936;51.660;5.616;2023-03-17T08:47:25;63.80;52.96;77.76;;
64545;Laerm;50936;51.660;5.616;2023-03-17T08:49:52;63.31;52.10;76.58;;
64545;Laerm;50936;51.660;5.616;2023-03-17T08:52:21;65.15;50.90;81.01;;
64545;Laerm;50936;51.660;5.616;2023-03-17T08:54:49;63.30;49.85;78.54;;
64545;Laerm;50936;51.660;5.616;2023-03-17T08:57:16;62.94;51.59;71.22;;
64545;Laerm;50936;51.660;5.616;2023-03-17T08:59:45;66.48;54.55;90.07;;
64545;Laerm;50936;51.660;5.616;2023-03-17T09:02:13;64.88;53.23;79.44;;
64545;Laerm;50936;51.660;5.616;2023-03-17T09:04:41;62.76;50.23;79.65;;
64545;Laerm;50936;51.660;5.616;2023-03-17T09:07:08;62.52;51.35;76.26;;
64545;Laerm;50936;51.660;5.616;2023-03-17T09:09:36;63.02;47.00;77.93;;
64545;Laerm;50936;51.660;5.616;2023-03-17T09:12:05;63.34;53.31;77.09;;
64545;Laerm;50936;51.660;5.616;2023-03-17T09:14:33;66.06;54.12;80.39;;
64545;Laerm;50936;51.660;5.616;2023-03-17T09:17:10;64.76;50.42;83.70;;
64545;Laerm;50936;51.660;5.616;2023-03-17T09:19:39;70.49;53.87;86.50;;
64545;Laerm;50936;51.660;5.616;2023-03-17T09:22:11;65.16;51.91;78.94;;
64545;Laerm;50936;51.660;5.616;2023-03-17T09:24:39;69.75;52.27;82.46;;
64545;Laerm;50936;51.660;5.616;2023-03-17T09:27:06;66.45;50.04;84.68;;
64545;Laerm;50936;51.660;5.616;2023-03-17T09:29:33;66.13;53.27;81.58;;
64545;Laerm;50936;51.660;5.616;2023-03-17T09:32:00;65.35;53.19;81.21;;
64545;Laerm;50936;51.660;5.616;2023-03-17T09:34:27;64.91;51.47;78.55;;
64545;Laerm;50936;51.660;5.616;2023-03-17T09:36:54;66.54;52.45;81.14;;
64545;Laerm;50936;51.660;5.616;2023-03-17T09:39:22;65.40;54.03;78.12;;
64545;Laerm;50936;51.660;5.616;2023-03-17T09:42:15;64.74;51.23;79.83;;
64545;Laerm;50936;51.660;5.616;2023-03-17T09:45:44;65.09;52.47;82.96;;
64545;Laerm;50936;51.660;5.616;2023-03-17T09:53:29;65.32;53.10;86.25;;
64545;Laerm;50936;51.660;5.616;2023-03-17T09:56:11;65.36;55.73;83.16;;
64545;Laerm;50936;51.660;5.616;2023-03-17T09:58:53;66.58;55.15;80.82;;
64545;Laerm;50936;51.660;5.616;2023-03-17T10:01:21;67.10;54.07;85.76;;
64545;Laerm;50936;51.660;5.616;2023-03-17T10:03:49;64.67;56.22;76.43;;
64545;Laerm;50936;51.660;5.616;2023-03-17T10:06:35;66.70;57.53;80.52;;
64545;Laerm;50936;51.660;5.616;2023-03-17T10:11:53;63.94;55.20;77.66;;
64545;Laerm;50936;51.660;5.616;2023-03-17T10:14:35;63.59;51.22;78.32;;
64545;Laerm;50936;51.660;5.616;2023-03-17T10:17:17;64.05;53.04;78.46;;
64545;Laerm;50936;51.660;5.616;2023-03-17T10:19:55;65.76;53.14;82.92;;
64545;Laerm;50936;51.660;5.616;2023-03-17T10:22:33;68.04;55.41;95.28;;
64545;Laerm;50936;51.660;5.616;2023-03-17T10:25:13;63.83;51.81;75.26;;
64545;Laerm;50936;51.660;5.616;2023-03-17T10:27:47;64.53;52.83;86.27;;
64545;Laerm;50936;51.660;5.616;2023-03-17T10:30:20;63.49;50.12;79.52;;
64545;Laerm;50936;51.660;5.616;2023-03-17T10:32:49;62.71;51.53;73.38;;
64545;Laerm;50936;51.660;5.616;2023-03-17T10:35:19;64.07;53.37;74.32;;
64545;Laerm;50936;51.660;5.616;2023-03-17T10:37:48;66.97;56.96;82.53;;
64545;Laerm;50936;51.660;5.616;2023-03-17T10:40:26;62.70;51.87;79.82;;
64545;Laerm;50936;51.660;5.616;2023-03-17T10:43:04;63.31;50.91;76.68;;
64545;Laerm;50936;51.660;5.616;2023-03-17T10:45:38;64.41;52.93;87.18;;
64545;Laerm;50936;51.660;5.616;2023-03-17T10:48:17;64.17;54.60;72.56;;
64545;Laerm;50936;51.660;5.616;2023-03-17T10:50:45;65.95;52.37;90.94;;
64545;Laerm;50936;51.660;5.616;2023-03-17T10:53:25;61.60;52.64;69.22;;
64545;Laerm;50936;51.660;5.616;2023-03-17T10:56:08;65.88;54.60;79.78;;
64545;Laerm;50936;51.660;5.616;2023-03-17T10:58:51;62.48;51.40;81.78;;
64545;Laerm;50936;51.660;5.616;2023-03-17T11:03:55;61.77;52.63;69.44;;
64545;Laerm;50936;51.660;5.616;2023-03-17T11:06:41;63.05;50.44;79.53;;
64545;Laerm;50936;51.660;5.616;2023-03-17T11:09:15;64.34;53.69;85.10;;
64545;Laerm;50936;51.660;5.616;2023-03-17T11:11:48;64.39;54.53;76.68;;
64545;Laerm;50936;51.660;5.616;2023-03-17T11:14:18;65.23;54.21;86.77;;
64545;Laerm;50936;51.660;5.616;2023-03-17T11:16:52;66.27;54.66;82.78;;
64545;Laerm;50936;51.660;5.616;2023-03-17T11:22:38;61.86;52.24;73.21;;
64545;Laerm;50936;51.660;5.616;2023-03-17T11:25:18;62.68;53.46;75.31;;
64545;Laerm;50936;51.660;5.616;2023-03-17T11:30:38;62.60;50.20;74.03;;
64545;Laerm;50936;51.660;5.616;2023-03-17T11:39:45;62.48;50.79;81.99;;
64545;Laerm;50936;51.660;5.616;2023-03-17T11:42:10;63.41;52.59;72.53;;
64545;Laerm;50936;51.660;5.616;2023-03-17T11:48:05;64.87;53.50;77.45;;
64545;Laerm;50936;51.660;5.616;2023-03-17T11:50:43;63.91;51.51;87.80;;
64545;Laerm;50936;51.660;5.616;2023-03-17T11:55:53;62.76;51.76;76.34;;
64545;Laerm;50936;51.660;5.616;2023-03-17T11:58:35;62.75;51.34;76.39;;
64545;Laerm;50936;51.660;5.616;2023-03-17T12:01:08;63.99;53.19;79.10;;
64545;Laerm;50936;51.660;5.616;2023-03-17T12:04:06;62.57;50.30;72.73;;
64545;Laerm;50936;51.660;5.616;2023-03-17T12:06:47;62.62;54.23;75.98;;
64545;Laerm;50936;51.660;5.616;2023-03-17T12:09:27;61.28;50.62;75.40;;
64545;Laerm;50936;51.660;5.616;2023-03-17T12:11:58;62.34;50.03;81.81;;
64545;Laerm;50936;51.660;5.616;2023-03-17T12:14:49;64.58;54.34;79.05;;
64545;Laerm;50936;51.660;5.616;2023-03-17T12:17:36;82.96;53.38;102.70;;
64545;Laerm;50936;51.660;5.616;2023-03-17T12:20:24;63.37;51.55;79.03;;
64545;Laerm;50936;51.660;5.616;2023-03-17T12:23:04;62.39;48.91;77.87;;
64545;Laerm;50936;51.660;5.616;2023-03-17T12:25:50;61.12;51.11;73.66;;
64545;Laerm;50936;51.660;5.616;2023-03-17T12:28:35;62.70;51.08;71.06;;
64545;Laerm;50936;51.660;5.616;2023-03-17T12:31:14;68.47;52.46;90.23;;
64545;Laerm;50936;51.660;5.616;2023-03-17T12:34:03;64.01;53.70;74.88;;
64545;Laerm;50936;51.660;5.616;2023-03-17T12:36:35;64.47;54.07;77.80;;
64545;Laerm;50936;51.660;5.616;2023-03-17T12:39:17;63.95;52.44;86.80;;
64545;Laerm;50936;51.660;5.616;2023-03-17T12:42:20;65.30;56.31;86.67;;
64545;Laerm;50936;51.660;5.616;2023-03-17T12:50:46;69.08;54.54;85.67;;
64545;Laerm;50936;51.660;5.616;2023-03-17T12:53:27;63.89;54.53;74.15;;
64545;Laerm;50936;51.660;5.616;2023-03-17T12:56:26;62.80;53.50;81.69;;
64545;Laerm;50936;51.660;5.616;2023-03-17T12:59:03;65.16;57.36;77.73;;
64545;Laerm;50936;51.660;5.616;2023-03-17T13:02:04;64.39;50.84;77.73;;
64545;Laerm;50936;51.660;5.616;2023-03-17T13:04:50;63.75;49.87;71.05;;
64545;Laerm;50936;51.660;5.616;2023-03-17T13:07:51;67.36;53.24;86.61;;
64545;Laerm;50936;51.660;5.616;2023-03-17T13:10:36;66.60;54.75;84.97;;
64545;Laerm;50936;51.660;5.616;2023-03-17T13:13:11;64.70;55.46;75.62;;
64545;Laerm;50936;51.660;5.616;2023-03-17T13:18:26;65.26;54.12;84.65;;
64545;Laerm;50936;51.660;5.616;2023-03-17T13:23:44;65.15;56.14;85.15;;
64545;Laerm;50936;51.660;5.616;2023-03-17T13:26:18;64.93;56.59;77.93;;
64545;Laerm;50936;51.660;5.616;2023-03-17T13:28:49;63.98;56.58;83.15;;
64545;Laerm;50936;51.660;5.616;2023-03-17T13:39:39;64.72;52.34;76.41;;
64545;Laerm;50936;51.660;5.616;2023-03-17T13:43:09;69.36;55.83;84.43;;
64545;Laerm;50936;51.660;5.616;2023-03-17T13:45:43;65.21;53.78;76.94;;
64545;Laerm;50936;51.660;5.616;2023-03-17T13:48:36;62.45;53.70;70.90;;
64545;Laerm;50936;51.660;5.616;2023-03-17T13:53:38;61.82;51.33;75.74;;
64545;Laerm;50936;51.660;5.616;2023-03-17T13:59:04;64.00;47.76;81.79;;
64545;Laerm;50936;51.660;5.616;2023-03-17T14:01:39;64.77;53.82;79.52;;
64545;Laerm;50936;51.660;5.616;2023-03-17T14:04:39;62.94;46.87;77.92;;
64545;Laerm;50936;51.660;5.616;2023-03-17T14:07:18;64.17;50.63;77.60;;
64545;Laerm;50936;51.660;5.616;2023-03-17T14:09:45;63.44;50.97;71.98;;
64545;Laerm;50936;51.660;5.616;2023-03-17T14:12:27;62.63;52.80;80.63;;
64545;Laerm;50936;51.660;5.616;2023-03-17T14:15:07;62.03;48.88;71.52;;
64545;Laerm;50936;51.660;5.616;2023-03-17T14:17:46;69.50;53.58;91.87;;
64545;Laerm;50936;51.660;5.616;2023-03-17T14:22:45;63.87;56.03;73.72;;
64545;Laerm;50936;51.660;5.616;2023-03-17T14:25:22;66.23;54.72;83.90;;
64545;Laerm;50936;51.660;5.616;2023-03-17T14:27:56;63.14;53.15;73.78;;
64545;Laerm;50936;51.660;5.616;2023-03-17T14:30:30;62.50;50.36;79.95;;
64545;Laerm;50936;51.660;5.616;2023-03-17T14:33:06;63.23;55.03;70.28;;
64545;Laerm;50936;51.660;5.616;2023-03-17T14:35:41;61.62;52.90;70.41;;
64545;Laerm;50936;51.660;5.616;2023-03-17T14:38:23;65.34;55.34;75.96;;
64545;Laerm;50936;51.660;5.616;2023-03-17T14:43:42;63.59;56.25;83.23;;
64545;Laerm;50936;51.660;5.616;2023-03-17T14:46:24;64.54;52.26;77.43;;
64545;Laerm;50936;51.660;5.616;2023-03-17T14:49:19;66.18;54.46;90.49;;
64545;Laerm;50936;51.660;5.616;2023-03-17T14:51:50;67.90;56.92;81.26;;
64545;Laerm;50936;51.660;5.616;2023-03-17T14:54:29;64.86;52.70;90.95;;
64545;Laerm;50936;51.660;5.616;2023-03-17T14:57:05;66.58;51.03;88.03;;
64545;Laerm;50936;51.660;5.616;2023-03-17T14:59:37;64.40;53.04;74.62;;
64545;Laerm;50936;51.660;5.616;2023-03-17T15:02:26;63.19;53.04;72.71;;
64545;Laerm;50936;51.660;5.616;2023-03-17T15:05:23;63.89;54.24;74.66;;
64545;Laerm;50936;51.660;5.616;2023-03-17T15:07:52;64.02;56.72;78.91;;
64545;Laerm;50936;51.660;5.616;2023-03-17T15:10:23;66.35;55.54;84.18;;
64545;Laerm;50936;51.660;5.616;2023-03-17T15:13:03;79.17;54.05;98.40;;
64545;Laerm;50936;51.660;5.616;2023-03-17T15:15:34;64.51;54.04;78.62;;
64545;Laerm;50936;51.660;5.616;2023-03-17T15:18:10;62.75;52.67;76.30;;